createdAt,value
2023-10-28T00:01:00.246Z,99207.75
2023-10-28T00:03:28.377Z,99199.63
2023-10-28T00:05:56.070Z,99211.34
2023-10-28T00:08:23.222Z,99210.06
2023-10-28T00:10:51.788Z,99215.87
2023-10-28T00:13:20.185Z,99210.59
2023-10-28T00:15:47.436Z,99223.03
2023-10-28T00:18:15.550Z,99228.25
2023-10-28T00:20:45.192Z,99237.19
2023-10-28T00:23:14.863Z,99233.84
2023-10-28T00:25:43.522Z,99238.56
2023-10-28T00:28:10.960Z,99230.97
2023-10-28T00:30:41.533Z,99237.34
2023-10-28T00:33:09.020Z,99238.41
2023-10-28T00:35:37.758Z,99226.50
2023-10-28T00:38:05.227Z,99226.41
2023-10-28T00:40:32.981Z,99223.97
2023-10-28T00:43:02.017Z,99233.19
2023-10-28T00:45:29.491Z,99236.03
2023-10-28T00:47:58.743Z,99242.47
2023-10-28T00:50:26.485Z,99250.38
2023-10-28T00:52:55.109Z,99248.34
2023-10-28T00:55:24.441Z,99255.00
2023-10-28T00:57:52.537Z,99259.50
2023-10-28T01:00:22.048Z,99258.19
2023-10-28T01:02:50.426Z,99263.25
2023-10-28T01:05:18.459Z,99261.47
2023-10-28T01:07:47.833Z,99260.53
2023-10-28T01:10:27.512Z,99259.44
2023-10-28T01:12:55.329Z,99251.16
2023-10-28T01:15:24.549Z,99254.03
2023-10-28T01:17:52.413Z,99261.84
2023-10-28T01:20:21.108Z,99255.94
2023-10-28T01:22:49.131Z,99262.56
2023-10-28T01:25:16.812Z,99258.19
2023-10-28T01:27:46.082Z,99270.34
2023-10-28T01:30:14.818Z,99267.28
2023-10-28T01:32:44.264Z,99269.87
2023-10-28T01:35:14.259Z,99253.47
2023-10-28T01:37:43.635Z,99258.53
2023-10-28T01:40:15.810Z,99262.34
2023-10-28T01:42:46.840Z,99267.06
2023-10-28T01:45:16.563Z,99268.00
2023-10-28T01:47:44.782Z,99274.50
2023-10-28T01:50:13.410Z,99277.44
2023-10-28T01:52:44.106Z,99279.84
2023-10-28T01:55:15.875Z,99282.31
2023-10-28T01:57:44.414Z,99278.88
2023-10-28T02:00:15.316Z,99289.75
2023-10-28T02:02:46.619Z,99288.78
2023-10-28T02:05:16.644Z,99292.09
2023-10-28T02:07:47.270Z,99297.31
2023-10-28T02:10:14.439Z,99300.16
2023-10-28T02:12:42.849Z,99294.81
2023-10-28T02:15:11.624Z,99302.03
2023-10-28T02:17:40.013Z,99304.84
2023-10-28T02:20:08.333Z,99310.31
2023-10-28T02:22:36.338Z,99312.16
2023-10-28T02:25:05.217Z,99310.03
2023-10-28T02:27:34.310Z,99318.53
2023-10-28T02:30:01.734Z,99318.47
2023-10-28T02:32:29.614Z,99324.56
2023-10-28T02:34:57.478Z,99320.47
2023-10-28T02:37:25.567Z,99311.09
2023-10-28T02:39:54.487Z,99307.87
2023-10-28T02:42:25.212Z,99297.63
2023-10-28T02:44:52.689Z,99297.25
2023-10-28T02:47:19.828Z,99299.34
2023-10-28T02:49:47.209Z,99294.50
2023-10-28T02:52:14.865Z,99289.47
2023-10-28T02:54:43.544Z,99284.44
2023-10-28T02:57:11.316Z,99287.97
2023-10-28T02:59:39.076Z,99286.72
2023-10-28T03:02:06.294Z,99281.91
2023-10-28T03:04:33.754Z,99285.81
2023-10-28T03:07:01.673Z,99290.34
2023-10-28T03:09:28.856Z,99294.00
2023-10-28T03:11:56.047Z,99289.53
2023-10-28T03:14:23.618Z,99279.72
2023-10-28T03:16:52.302Z,99294.16
2023-10-28T03:19:20.160Z,99298.19
2023-10-28T03:21:50.599Z,99291.72
2023-10-28T03:24:18.006Z,99297.50
2023-10-28T03:26:45.419Z,99307.75
2023-10-28T03:29:13.244Z,99303.50
2023-10-28T03:31:40.545Z,99300.00
2023-10-28T03:34:10.732Z,99307.69
2023-10-28T03:36:38.431Z,99313.25
2023-10-28T03:39:06.232Z,99310.22
2023-10-28T03:41:34.013Z,99308.16
2023-10-28T03:44:02.413Z,99322.84
2023-10-28T03:46:29.637Z,99333.00
2023-10-28T03:48:56.760Z,99319.28
2023-10-28T03:51:24.168Z,99321.91
2023-10-28T03:53:51.560Z,99326.75
2023-10-28T03:56:18.979Z,99326.38
2023-10-28T03:58:46.395Z,99320.25
2023-10-28T04:01:13.881Z,99319.31
2023-10-28T04:03:41.389Z,99327.81
2023-10-28T04:06:08.582Z,99336.31
2023-10-28T04:08:35.713Z,99334.44
2023-10-28T04:11:05.621Z,99327.25
2023-10-28T04:13:33.455Z,99330.31
2023-10-28T04:16:02.602Z,99331.37
2023-10-28T04:18:30.368Z,99331.37
2023-10-28T04:20:57.641Z,99325.19
2023-10-28T04:23:26.706Z,99323.06
2023-10-28T04:25:54.183Z,99329.69
2023-10-28T04:28:21.435Z,99338.91
2023-10-28T04:30:58.318Z,99344.00
2023-10-28T04:33:26.824Z,99344.72
2023-10-28T04:35:54.614Z,99347.78
2023-10-28T04:38:22.516Z,99353.22
2023-10-28T04:40:50.895Z,99339.50
2023-10-28T04:43:18.195Z,99342.47
2023-10-28T04:45:46.029Z,99342.31
2023-10-28T04:48:14.980Z,99341.75
2023-10-28T04:50:45.112Z,99333.84
2023-10-28T04:53:17.759Z,99345.91
2023-10-28T04:55:45.401Z,99344.34
2023-10-28T04:58:12.890Z,99346.25
2023-10-28T05:00:40.548Z,99346.25
2023-10-28T05:03:09.020Z,99348.88
2023-10-28T05:05:36.996Z,99352.63
2023-10-28T05:08:06.159Z,99349.56
2023-10-28T05:10:34.267Z,99353.69
2023-10-28T05:13:01.411Z,99358.31
2023-10-28T05:15:30.487Z,99361.59
2023-10-28T05:17:57.952Z,99367.59
2023-10-28T05:20:25.907Z,99366.81
2023-10-28T05:22:53.411Z,99373.69
2023-10-28T05:25:21.105Z,99384.56
2023-10-28T05:27:48.733Z,99392.03
2023-10-28T05:30:16.095Z,99392.38
2023-10-28T05:32:43.860Z,99405.87
2023-10-28T05:35:12.500Z,99405.84
2023-10-28T05:37:40.489Z,99408.34
2023-10-28T05:40:11.618Z,99407.16
2023-10-28T05:42:39.021Z,99412.97
2023-10-28T05:45:08.893Z,99419.78
2023-10-28T05:47:36.908Z,99412.22
2023-10-28T05:50:08.843Z,99419.78
2023-10-28T05:52:39.692Z,99415.19
2023-10-28T05:55:17.262Z,99434.34
2023-10-28T05:57:45.048Z,99446.19
2023-10-28T06:00:12.698Z,99441.31
2023-10-28T06:02:41.143Z,99447.34
2023-10-28T06:05:09.257Z,99445.81
2023-10-28T06:07:48.405Z,99456.06
2023-10-28T06:10:16.352Z,99457.00
2023-10-28T06:12:43.829Z,99465.31
2023-10-28T06:15:12.607Z,99466.87
2023-10-28T06:17:40.172Z,99470.91
2023-10-28T06:20:08.116Z,99477.22
2023-10-28T06:22:36.170Z,99486.44
2023-10-28T06:25:05.697Z,99485.50
2023-10-28T06:27:35.805Z,99484.28
2023-10-28T06:30:07.091Z,99491.53
2023-10-28T06:32:34.299Z,99493.19
2023-10-28T06:35:01.539Z,99486.97
2023-10-28T06:37:29.577Z,99490.72
2023-10-28T06:39:56.683Z,99494.59
2023-10-28T06:42:25.139Z,99493.41
2023-10-28T06:44:52.664Z,99498.78
2023-10-28T06:47:21.647Z,99503.72
2023-10-28T06:49:49.077Z,99501.50
2023-10-28T06:52:16.834Z,99509.09
2023-10-28T06:54:44.549Z,99515.81
2023-10-28T06:57:11.682Z,99518.09
2023-10-28T06:59:39.130Z,99528.50
2023-10-28T07:02:06.946Z,99533.72
2023-10-28T07:04:35.081Z,99537.38
2023-10-28T07:07:02.585Z,99537.28
2023-10-28T07:09:30.586Z,99538.00
2023-10-28T07:11:57.714Z,99543.06
2023-10-28T07:14:26.075Z,99549.22
2023-10-28T07:16:54.800Z,99549.34
2023-10-28T07:19:22.384Z,99556.22
2023-10-28T07:21:51.300Z,99560.84
2023-10-28T07:24:18.416Z,99562.12
2023-10-28T07:26:52.697Z,99562.38
2023-10-28T07:29:20.235Z,99567.22
2023-10-28T07:31:49.014Z,99571.16
2023-10-28T07:34:16.236Z,99581.69
2023-10-28T07:36:43.680Z,99581.78
2023-10-28T07:39:10.996Z,99590.09
2023-10-28T07:41:39.174Z,99598.81
2023-10-28T07:44:06.805Z,99589.09
2023-10-28T07:46:34.655Z,99584.25
2023-10-28T07:49:01.906Z,99591.13
2023-10-28T07:51:29.335Z,99588.78
2023-10-28T07:53:56.564Z,99583.28
2023-10-28T07:56:25.063Z,99587.69
2023-10-28T07:58:54.258Z,99582.63
2023-10-28T08:01:23.290Z,99596.84
2023-10-28T08:03:52.929Z,99596.03
2023-10-28T08:06:34.126Z,99604.56
2023-10-28T08:09:07.248Z,99607.38
2023-10-28T08:11:34.690Z,99608.34
2023-10-28T08:14:04.892Z,99604.87
2023-10-28T08:16:36.164Z,99604.66
2023-10-28T08:19:05.084Z,99605.50
2023-10-28T08:21:35.856Z,99602.63
2023-10-28T08:24:03.258Z,99607.38
2023-10-28T08:26:30.934Z,99621.59
2023-10-28T08:29:01.419Z,99627.97
2023-10-28T08:31:29.320Z,99629.47
2023-10-28T08:33:57.306Z,99631.25
2023-10-28T08:36:26.353Z,99637.31
2023-10-28T08:38:53.686Z,99644.25
2023-10-28T08:41:25.518Z,99637.84
2023-10-28T08:43:54.704Z,99656.91
2023-10-28T08:46:22.870Z,99660.22
2023-10-28T08:48:55.175Z,99648.59
2023-10-28T08:51:26.141Z,99663.16
2023-10-28T08:54:00.308Z,99659.47
2023-10-28T08:56:31.479Z,99655.63
2023-10-28T08:58:58.958Z,99664.97
2023-10-28T09:01:29.921Z,99667.06
2023-10-28T09:04:02.541Z,99675.00
2023-10-28T09:06:32.672Z,99674.78
2023-10-28T09:09:03.415Z,99675.56
2023-10-28T09:11:37.584Z,99682.53
2023-10-28T09:14:11.404Z,99684.34
2023-10-28T09:16:39.704Z,99683.88
2023-10-28T09:19:21.198Z,99689.53
2023-10-28T09:21:51.488Z,99682.22
2023-10-28T09:24:20.335Z,99690.81
2023-10-28T09:26:47.643Z,99694.91
2023-10-28T09:29:30.239Z,99691.13
2023-10-28T09:32:07.836Z,99693.66
2023-10-28T09:34:41.162Z,99699.69
2023-10-28T09:37:10.070Z,99702.72
2023-10-28T09:39:38.096Z,99705.66
2023-10-28T09:42:07.238Z,99700.19
2023-10-28T09:44:35.551Z,99695.41
2023-10-28T09:47:05.169Z,99698.25
2023-10-28T09:49:36.099Z,99689.88
2023-10-28T09:52:07.796Z,99695.09
2023-10-28T09:54:37.359Z,99694.69
2023-10-28T09:57:08.384Z,99685.00
2023-10-28T09:59:40.418Z,99684.53
2023-10-28T10:02:26.779Z,99685.00
2023-10-28T10:04:59.336Z,99688.66
2023-10-28T10:07:26.698Z,99682.25
2023-10-28T10:09:54.887Z,99691.81
2023-10-28T10:12:30.748Z,99686.03
2023-10-28T10:15:00.615Z,99686.88
2023-10-28T10:17:37.303Z,99673.09
2023-10-28T10:20:07.878Z,99679.59
2023-10-28T10:22:36.600Z,99676.84
2023-10-28T10:25:05.698Z,99672.72
2023-10-28T10:27:34.981Z,99680.28
2023-10-28T10:30:07.434Z,99685.41
2023-10-28T10:32:48.837Z,99690.50
2023-10-28T10:35:30.276Z,99693.28
2023-10-28T10:38:05.557Z,99690.13
2023-10-28T10:40:47.314Z,99694.38
2023-10-28T10:43:21.648Z,99697.06
2023-10-28T10:45:50.454Z,99690.31
2023-10-28T10:48:20.407Z,99703.66
2023-10-28T10:50:48.684Z,99704.47
2023-10-28T10:53:18.236Z,99699.09
2023-10-28T10:55:46.242Z,99697.00
2023-10-28T10:58:14.000Z,99695.72
2023-10-28T11:00:41.325Z,99692.53
2023-10-28T11:03:11.963Z,99694.06
2023-10-28T11:05:44.905Z,99683.97
2023-10-28T11:08:15.854Z,99681.22
2023-10-28T11:10:46.449Z,99678.28
2023-10-28T11:13:14.377Z,99672.31
2023-10-28T11:15:42.776Z,99668.88
2023-10-28T11:18:10.711Z,99659.16
2023-10-28T11:20:38.303Z,99662.03
2023-10-28T11:23:06.013Z,99655.75
2023-10-28T11:25:34.555Z,99652.94
2023-10-28T11:28:08.983Z,99661.16
2023-10-28T11:30:36.415Z,99661.31
2023-10-28T11:33:09.336Z,99666.03
2023-10-28T11:35:37.377Z,99672.91
2023-10-28T11:38:07.250Z,99670.94
2023-10-28T11:40:34.505Z,99671.16
2023-10-28T11:43:06.320Z,99666.97
2023-10-28T11:45:33.858Z,99664.13
2023-10-28T11:48:01.596Z,99668.50
2023-10-28T11:50:28.878Z,99673.75
2023-10-28T11:52:56.434Z,99683.66
2023-10-28T11:55:23.574Z,99676.03
2023-10-28T11:57:52.087Z,99676.97
2023-10-28T12:00:20.180Z,99673.63
2023-10-28T12:02:52.599Z,99670.69
2023-10-28T12:05:19.973Z,99675.81
2023-10-28T12:07:48.373Z,99678.44
2023-10-28T12:10:15.548Z,99680.56
2023-10-28T12:12:42.692Z,99689.19
2023-10-28T12:15:11.005Z,99691.22
2023-10-28T12:17:39.661Z,99688.34
2023-10-28T12:20:09.003Z,99693.81
2023-10-28T12:22:36.501Z,99694.84
2023-10-28T12:25:06.548Z,99697.38
2023-10-28T12:27:33.966Z,99702.31
2023-10-28T12:30:02.215Z,99692.94
2023-10-28T12:32:30.737Z,99697.13
2023-10-28T12:34:58.099Z,99703.47
2023-10-28T12:37:27.723Z,99702.69
2023-10-28T12:39:56.597Z,99699.34
2023-10-28T12:42:25.503Z,99697.81
2023-10-28T12:44:53.125Z,99700.88
2023-10-28T12:47:22.462Z,99703.41
2023-10-28T12:49:49.616Z,99702.00
2023-10-28T12:52:17.045Z,99695.25
2023-10-28T12:54:47.410Z,99691.91
2023-10-28T12:57:14.667Z,99684.03
2023-10-28T12:59:47.663Z,99687.75
2023-10-28T13:02:16.467Z,99694.13
2023-10-28T13:04:45.523Z,99684.91
2023-10-28T13:07:12.892Z,99691.22
2023-10-28T13:09:40.023Z,99687.87
2023-10-28T13:12:11.709Z,99679.03
2023-10-28T13:14:38.947Z,99682.53
2023-10-28T13:17:08.155Z,99684.59
2023-10-28T13:19:37.166Z,99687.97
2023-10-28T13:22:04.300Z,99700.66
2023-10-28T13:24:31.482Z,99706.97
2023-10-28T13:26:59.163Z,99710.13
2023-10-28T13:29:26.331Z,99715.09
2023-10-28T13:31:53.563Z,99698.78
2023-10-28T13:34:21.447Z,99694.31
2023-10-28T13:36:50.197Z,99696.41
2023-10-28T13:39:18.976Z,99691.28
2023-10-28T13:41:47.475Z,99690.31
2023-10-28T13:44:17.166Z,99688.50
2023-10-28T13:46:44.459Z,99694.75
2023-10-28T13:49:12.015Z,99700.00
2023-10-28T13:51:39.418Z,99703.25
2023-10-28T13:54:10.543Z,99714.34
2023-10-28T13:56:38.634Z,99705.28
2023-10-28T13:59:05.954Z,99711.19
2023-10-28T14:01:33.154Z,99720.13
2023-10-28T14:04:05.040Z,99718.19
2023-10-28T14:06:32.301Z,99712.16
2023-10-28T14:08:59.506Z,99713.13
2023-10-28T14:11:27.525Z,99718.53
2023-10-28T14:13:55.756Z,99720.03
2023-10-28T14:16:26.607Z,99720.72
2023-10-28T14:18:54.223Z,99726.00
2023-10-28T14:21:23.989Z,99721.00
2023-10-28T14:23:53.602Z,99720.19
2023-10-28T14:26:21.137Z,99722.34
2023-10-28T14:28:48.848Z,99724.56
2023-10-28T14:31:19.402Z,99722.91
2023-10-28T14:33:48.988Z,99734.75
2023-10-28T14:36:16.456Z,99739.34
2023-10-28T14:38:46.591Z,99732.84
2023-10-28T14:41:14.255Z,99737.84
2023-10-28T14:43:41.979Z,99738.38
2023-10-28T14:46:10.312Z,99741.13
2023-10-28T14:48:38.891Z,99748.87
2023-10-28T14:51:09.402Z,99743.78
2023-10-28T14:53:37.607Z,99748.34
2023-10-28T14:56:14.853Z,99742.03
2023-10-28T14:58:42.096Z,99747.38
2023-10-28T15:01:11.267Z,99758.84
2023-10-28T15:03:39.858Z,99755.81
2023-10-28T15:06:07.617Z,99762.16
2023-10-28T15:08:35.413Z,99756.91
2023-10-28T15:11:05.181Z,99765.03
2023-10-28T15:13:33.073Z,99759.38
2023-10-28T15:16:01.199Z,99765.00
2023-10-28T15:18:31.648Z,99757.66
2023-10-28T15:20:58.790Z,99755.16
2023-10-28T15:23:26.669Z,99755.13
2023-10-28T15:25:56.617Z,99762.53
2023-10-28T15:28:24.967Z,99761.19
2023-10-28T15:30:53.536Z,99764.87
2023-10-28T15:33:21.064Z,99764.53
2023-10-28T15:35:52.067Z,99764.72
2023-10-28T15:38:21.087Z,99765.94
2023-10-28T15:40:56.813Z,99758.38
2023-10-28T15:43:27.534Z,99753.66
2023-10-28T15:45:54.703Z,99755.91
2023-10-28T15:48:21.989Z,99750.56
2023-10-28T15:50:52.805Z,99761.53
2023-10-28T15:53:21.450Z,99767.38
2023-10-28T15:55:48.671Z,99770.28
2023-10-28T15:58:18.374Z,99772.69
2023-10-28T16:00:48.401Z,99761.56
2023-10-28T16:03:17.883Z,99769.75
2023-10-28T16:05:45.174Z,99772.00
2023-10-28T16:08:12.445Z,99771.91
2023-10-28T16:10:41.687Z,99773.56
2023-10-28T16:13:13.935Z,99781.19
2023-10-28T16:15:42.129Z,99789.47
2023-10-28T16:18:09.459Z,99788.00
2023-10-28T16:20:38.158Z,99788.72
2023-10-28T16:23:05.753Z,99804.63
2023-10-28T16:25:33.024Z,99798.25
2023-10-28T16:28:00.295Z,99806.56
2023-10-28T16:30:28.817Z,99805.13
2023-10-28T16:32:56.284Z,99808.13
2023-10-28T16:35:23.570Z,99812.03
2023-10-28T16:37:51.530Z,99812.25
2023-10-28T16:40:22.418Z,99814.47
2023-10-28T16:42:50.303Z,99825.37
2023-10-28T16:45:18.818Z,99826.03
2023-10-28T16:47:46.126Z,99832.44
2023-10-28T16:50:15.847Z,99838.34
2023-10-28T16:52:43.323Z,99827.69
2023-10-28T16:55:10.877Z,99811.91
2023-10-28T16:57:44.233Z,99795.50
2023-10-28T17:00:13.517Z,99797.75
2023-10-28T17:02:41.084Z,99806.53
2023-10-28T17:05:08.599Z,99810.53
2023-10-28T17:07:37.295Z,99814.44
2023-10-28T17:10:04.932Z,99811.16
2023-10-28T17:12:33.825Z,99801.06
2023-10-28T17:15:02.980Z,99811.56
2023-10-28T17:17:30.161Z,99822.38
2023-10-28T17:19:57.663Z,99826.75
2023-10-28T17:22:29.235Z,99820.22
2023-10-28T17:24:58.306Z,99810.53
2023-10-28T17:27:26.674Z,99819.13
2023-10-28T17:29:56.584Z,99825.31
2023-10-28T17:32:23.759Z,99826.16
2023-10-28T17:34:51.026Z,99830.91
2023-10-28T17:37:21.310Z,99832.59
2023-10-28T17:39:49.757Z,99837.53
2023-10-28T17:42:21.567Z,99827.78
2023-10-28T17:44:51.541Z,99827.25
2023-10-28T17:47:18.764Z,99824.97
2023-10-28T17:49:46.082Z,99838.63
2023-10-28T17:52:14.750Z,99855.25
2023-10-28T17:54:41.872Z,99864.37
2023-10-28T17:57:09.609Z,99869.94
2023-10-28T17:59:37.654Z,99873.94
2023-10-28T18:02:05.230Z,99866.41
2023-10-28T18:04:34.818Z,99876.19
2023-10-28T18:07:04.617Z,99885.47
2023-10-28T18:09:34.660Z,99886.56
2023-10-28T18:12:02.767Z,99888.16
2023-10-28T18:14:33.694Z,99893.63
2023-10-28T18:17:01.579Z,99893.94
2023-10-28T18:19:30.805Z,99895.50
2023-10-28T18:21:58.482Z,99896.53
2023-10-28T18:24:25.755Z,99908.84
2023-10-28T18:26:53.458Z,99902.41
2023-10-28T18:29:21.137Z,99910.22
2023-10-28T18:31:48.975Z,99908.63
2023-10-28T18:34:19.193Z,99909.06
2023-10-28T18:36:51.122Z,99910.22
2023-10-28T18:39:26.462Z,99909.91
2023-10-28T18:41:58.810Z,99907.50
2023-10-28T18:44:26.862Z,99907.72
2023-10-28T18:47:09.383Z,99914.03
2023-10-28T18:49:40.888Z,99917.47
2023-10-28T18:52:13.741Z,99924.44
2023-10-28T18:54:42.698Z,99924.22
2023-10-28T18:57:10.256Z,99931.69
2023-10-28T18:59:38.055Z,99937.72
2023-10-28T19:02:06.681Z,99930.34
2023-10-28T19:04:34.783Z,99944.88
2023-10-28T19:07:04.045Z,99949.97
2023-10-28T19:09:32.127Z,99947.19
2023-10-28T19:12:00.046Z,99950.09
2023-10-28T19:14:29.488Z,99952.97
2023-10-28T19:16:59.324Z,99959.12
2023-10-28T19:19:27.635Z,99955.13
2023-10-28T19:21:55.344Z,99959.91
2023-10-28T19:24:23.456Z,99965.31
2023-10-28T19:26:51.502Z,99969.69
2023-10-28T19:29:19.198Z,99968.78
2023-10-28T19:31:47.462Z,99965.94
2023-10-28T19:34:16.892Z,99972.06
2023-10-28T19:36:45.210Z,99981.84
2023-10-28T19:39:13.256Z,99975.38
2023-10-28T19:41:40.554Z,99973.34
2023-10-28T19:44:08.535Z,99973.50
2023-10-28T19:46:36.579Z,99972.94
2023-10-28T19:49:04.244Z,99968.84
2023-10-28T19:51:32.063Z,99969.41
2023-10-28T19:54:00.956Z,99973.91
2023-10-28T19:56:28.760Z,99977.84
2023-10-28T19:58:56.115Z,99979.50
2023-10-28T20:01:25.892Z,99974.19
2023-10-28T20:03:54.713Z,99976.44
2023-10-28T20:06:23.598Z,99970.41
2023-10-28T20:08:50.928Z,99973.38
2023-10-28T20:11:18.985Z,99969.09
2023-10-28T20:13:47.845Z,99977.91
2023-10-28T20:16:15.717Z,99977.53
2023-10-28T20:18:43.730Z,99976.47
2023-10-28T20:21:13.730Z,99982.28
2023-10-28T20:23:43.619Z,99981.78
2023-10-28T20:26:11.133Z,99983.22
2023-10-28T20:28:38.763Z,99976.06
2023-10-28T20:31:06.697Z,99985.25
2023-10-28T20:33:34.922Z,99995.06
2023-10-28T20:36:02.753Z,99992.69
2023-10-28T20:38:32.206Z,99992.84
2023-10-28T20:41:00.328Z,99986.00
2023-10-28T20:43:28.456Z,99975.81
2023-10-28T20:45:57.800Z,99981.53
2023-10-28T20:48:25.563Z,99986.19
2023-10-28T20:50:53.765Z,100002.75
2023-10-28T20:53:23.331Z,100004.97
2023-10-28T20:55:51.135Z,100000.25
2023-10-28T20:58:21.449Z,99997.09
2023-10-28T21:00:48.797Z,100005.66
2023-10-28T21:03:16.277Z,100006.19
2023-10-28T21:05:43.656Z,99999.34
2023-10-28T21:08:11.688Z,100003.41
2023-10-28T21:10:39.252Z,100008.88
2023-10-28T21:13:06.420Z,100008.41
2023-10-28T21:15:34.141Z,100005.34
2023-10-28T21:18:01.918Z,100006.09
2023-10-28T21:20:29.141Z,99997.28
2023-10-28T21:22:56.843Z,99994.34
2023-10-28T21:25:24.279Z,99993.22
2023-10-28T21:27:51.593Z,99988.59
2023-10-28T21:30:20.087Z,99992.09
2023-10-28T21:32:48.159Z,99985.63
2023-10-28T21:35:16.107Z,99991.72
2023-10-28T21:37:43.308Z,100000.41
2023-10-28T21:40:11.813Z,99996.03
2023-10-28T21:42:39.606Z,99993.16
2023-10-28T21:45:08.702Z,99989.53
2023-10-28T21:47:36.861Z,99991.75
2023-10-28T21:50:06.723Z,99989.53
2023-10-28T21:52:34.403Z,99988.56
2023-10-28T21:55:01.911Z,99993.37
2023-10-28T21:57:30.386Z,99988.00
2023-10-28T21:59:58.602Z,99996.72
2023-10-28T22:02:26.652Z,99992.63
2023-10-28T22:04:56.423Z,100003.19
2023-10-28T22:07:24.055Z,99998.22
2023-10-28T22:09:52.435Z,100018.19
2023-10-28T22:12:20.369Z,100017.47
2023-10-28T22:14:48.261Z,100007.09
2023-10-28T22:17:16.059Z,100009.34
2023-10-28T22:19:44.603Z,100018.78
2023-10-28T22:22:12.282Z,100035.50
2023-10-28T22:24:42.194Z,100037.44
2023-10-28T22:27:10.153Z,100036.59
2023-10-28T22:29:38.220Z,100036.38
2023-10-28T22:32:06.553Z,100031.97
2023-10-28T22:34:35.951Z,100033.78
2023-10-28T22:37:03.950Z,100027.56
2023-10-28T22:39:32.984Z,100026.94
2023-10-28T22:42:00.956Z,100023.03
2023-10-28T22:44:29.123Z,100031.75
2023-10-28T22:46:57.229Z,100032.69
2023-10-28T22:49:25.200Z,100040.47
2023-10-28T22:51:52.949Z,100032.59
2023-10-28T22:54:20.580Z,100035.12
2023-10-28T22:56:48.746Z,100040.13
2023-10-28T22:59:16.641Z,100045.50
2023-10-28T23:01:44.497Z,100049.34
2023-10-28T23:04:15.299Z,100054.00
2023-10-28T23:06:45.077Z,100064.34
2023-10-28T23:09:13.072Z,100057.47
2023-10-28T23:11:42.931Z,100049.91
2023-10-28T23:14:10.727Z,100040.66
2023-10-28T23:16:39.074Z,100036.78
2023-10-28T23:19:09.224Z,100031.28
2023-10-28T23:21:36.996Z,100030.94
2023-10-28T23:24:05.772Z,100027.25
2023-10-28T23:26:33.808Z,100024.34
2023-10-28T23:29:01.631Z,100019.16
2023-10-28T23:31:29.564Z,100025.12
2023-10-28T23:33:57.178Z,100022.31
2023-10-28T23:36:24.836Z,100020.28
2023-10-28T23:38:52.799Z,100018.53
2023-10-28T23:41:20.661Z,100025.00
2023-10-28T23:43:49.623Z,100030.34
2023-10-28T23:46:17.657Z,100025.91
2023-10-28T23:48:45.403Z,100022.66
2023-10-28T23:51:13.112Z,100027.13
2023-10-28T23:53:41.093Z,100029.72
2023-10-28T23:56:08.779Z,100043.63
2023-10-28T23:58:36.440Z,100036.69
